Time;durP1;ratioP1;P1;durP2;ratioP2;P2;SDS_P1;SDS_P2;PMS_P1;PMS_P2;Temp;Humidity;BMP_temperature;BMP_pressure;BME280_temperature;BME280_humidity;BME280_pressure;Samples;Min_cycle;Max_cycle;Signal;HPM_P1;HPM_P2
2024/04/22 00:00:23;;;;;;;2.60;1.58;;;;;;;;;;11127070;26;20032;-66
2024/04/22 00:05:24;;;;;;;1.98;1.30;;;;;;;;;;11123132;26;20032;-64
2024/04/22 00:10:25;;;;;;;1.52;1.05;;;;;;;;;;11125399;26;20001;-62
2024/04/22 00:15:26;;;;;;;1.50;1.20;;;;;;;;;;11109631;26;20086;-64
2024/04/22 00:20:27;;;;;;;2.28;1.10;;;;;;;;;;11110141;26;20000;-64
2024/04/22 00:25:29;;;;;;;2.10;1.23;;;;;;;;;;11091992;26;20012;-64
2024/04/22 00:30:30;;;;;;;2.58;1.10;;;;;;;;;;11128383;26;20102;-64
2024/04/22 00:35:32;;;;;;;1.40;1.30;;;;;;;;;;11112177;26;20138;-62
2024/04/22 00:40:33;;;;;;;3.97;1.42;;;;;;;;;;11121874;26;20075;-64
2024/04/22 00:45:34;;;;;;;3.33;1.30;;;;;;;;;;11121476;26;20016;-63
2024/04/22 00:50:35;;;;;;;1.45;1.23;;;;;;;;;;11077666;26;20085;-65
2024/04/22 00:55:38;;;;;;;1.48;1.10;;;;;;;;;;11123949;26;20088;-65
2024/04/22 01:00:40;;;;;;;3.88;1.40;;;;;;;;;;11121571;26;20039;-65
2024/04/22 01:05:41;;;;;;;1.60;1.50;;;;;;;;;;11116995;26;20036;-62
2024/04/22 01:10:43;;;;;;;1.55;1.08;;;;;;;;;;11124607;26;20543;-63
2024/04/22 01:15:44;;;;;;;3.47;1.38;;;;;;;;;;11123537;26;20407;-62
2024/04/22 01:20:46;;;;;;;3.03;1.40;;;;;;;;;;11122919;26;20051;-64
2024/04/22 01:25:57;;;;;;;1.00;1.00;;;;;;;;;;11124256;26;20032;-64
2024/04/22 01:30:58;;;;;;;3.05;1.33;;;;;;;;;;11093320;26;20004;-63
2024/04/22 01:35:59;;;;;;;2.15;1.00;;;;;;;;;;11123912;26;20038;-64
2024/04/22 01:41:00;;;;;;;1.10;1.10;;;;;;;;;;11106263;26;20077;-64
2024/04/22 01:46:04;;;;;;;1.20;1.10;;;;;;;;;;11125162;26;20063;-65
2024/04/22 01:51:05;;;;;;;1.70;1.30;;;;;;;;;;11123551;26;20036;-64
2024/04/22 01:56:06;;;;;;;1.63;1.08;;;;;;;;;;11122275;26;20004;-62
2024/04/22 02:01:08;;;;;;;1.50;1.40;;;;;;;;;;11123074;26;19997;-64
2024/04/22 02:06:09;;;;;;;1.10;1.00;;;;;;;;;;11095291;26;20008;-64
2024/04/22 02:11:10;;;;;;;1.30;1.20;;;;;;;;;;11123040;26;20091;-64
2024/04/22 02:16:11;;;;;;;1.42;1.33;;;;;;;;;;11118591;26;20028;-62
2024/04/22 02:21:13;;;;;;;1.35;1.20;;;;;;;;;;11123540;26;20856;-62
2024/04/22 02:26:14;;;;;;;1.45;1.35;;;;;;;;;;11097281;26;19996;-63
2024/04/22 02:31:15;;;;;;;1.25;1.10;;;;;;;;;;11120693;26;20000;-63
2024/04/22 02:36:16;;;;;;;1.00;1.00;;;;;;;;;;11103658;26;20095;-66
2024/04/22 02:41:17;;;;;;;1.20;1.10;;;;;;;;;;11121403;26;20012;-64
2024/04/22 02:46:18;;;;;;;1.52;1.25;;;;;;;;;;11120101;26;20099;-63
2024/04/22 02:51:19;;;;;;;0.98;0.98;;;;;;;;;;11126014;26;20484;-64
2024/04/22 02:56:20;;;;;;;2.45;1.20;;;;;;;;;;11127234;26;20004;-65
2024/04/22 03:01:21;;;;;;;1.70;1.25;;;;;;;;;;11127657;26;20474;-64
2024/04/22 03:06:22;;;;;;;1.20;1.10;;;;;;;;;;11128088;26;20004;-65
2024/04/22 03:11:24;;;;;;;1.25;1.15;;;;;;;;;;11097309;26;20363;-67
2024/04/22 03:16:25;;;;;;;0.80;0.80;;;;;;;;;;11126160;26;20014;-64
2024/04/22 03:21:27;;;;;;;1.65;1.23;;;;;;;;;;11127625;26;20028;-66
2024/04/22 03:26:28;;;;;;;1.00;1.00;;;;;;;;;;11116588;26;20008;-67
2024/04/22 03:31:31;;;;;;;1.30;1.20;;;;;;;;;;11129866;26;20000;-65
2024/04/22 03:36:32;;;;;;;2.05;1.17;;;;;;;;;;11125592;26;20004;-65
2024/04/22 03:41:33;;;;;;;1.15;1.05;;;;;;;;;;11125863;26;20004;-66
2024/04/22 03:51:54;;;;;;;0.90;0.90;;;;;;;;;;11102082;26;19997;-65
2024/04/22 03:56:55;;;;;;;1.00;1.00;;;;;;;;;;11123707;26;20067;-66
2024/04/22 04:01:57;;;;;;;1.20;1.10;;;;;;;;;;11123921;26;20004;-65
2024/04/22 04:06:58;;;;;;;1.20;1.17;;;;;;;;;;11124812;26;20077;-65
2024/04/22 04:11:59;;;;;;;3.13;1.20;;;;;;;;;;11128036;26;20004;-65
2024/04/22 04:17:00;;;;;;;10.55;1.20;;;;;;;;;;11118587;26;20071;-63
2024/04/22 04:22:02;;;;;;;1.08;1.08;;;;;;;;;;11126807;26;20008;-64
2024/04/22 04:27:03;;;;;;;8.98;1.48;;;;;;;;;;11122110;26;20016;-65
2024/04/22 04:32:04;;;;;;;2.75;1.20;;;;;;;;;;11122228;26;20024;-65
2024/04/22 04:37:06;;;;;;;1.15;1.08;;;;;;;;;;11124499;26;20024;-64
2024/04/22 04:42:07;;;;;;;3.28;0.90;;;;;;;;;;11118180;26;20111;-63
2024/04/22 04:47:08;;;;;;;1.63;1.20;;;;;;;;;;11122714;26;20124;-64
2024/04/22 04:52:09;;;;;;;1.13;1.02;;;;;;;;;;11125106;26;20000;-64
2024/04/22 04:57:10;;;;;;;2.10;1.15;;;;;;;;;;11123100;26;20015;-64
2024/04/22 05:02:11;;;;;;;2.33;1.10;;;;;;;;;;11125714;26;20000;-64
2024/04/22 05:07:12;;;;;;;1.48;1.10;;;;;;;;;;11123454;26;20004;-64
2024/04/22 05:12:13;;;;;;;1.25;1.05;;;;;;;;;;11123952;26;20000;-63
2024/04/22 05:17:14;;;;;;;0.98;0.98;;;;;;;;;;11121007;26;20535;-63
2024/04/22 05:22:16;;;;;;;0.90;0.90;;;;;;;;;;11124928;26;20028;-64
2024/04/22 05:27:17;;;;;;;2.13;0.90;;;;;;;;;;11113116;26;20026;-64
2024/04/22 05:32:19;;;;;;;1.48;1.20;;;;;;;;;;11124670;26;20098;-63
2024/04/22 05:37:20;;;;;;;0.85;0.85;;;;;;;;;;11121145;26;20032;-62
2024/04/22 05:42:21;;;;;;;1.10;1.00;;;;;;;;;;11109145;26;20088;-62
2024/04/22 05:47:22;;;;;;;2.58;1.20;;;;;;;;;;11087161;26;20083;-61
2024/04/22 05:52:23;;;;;;;6.88;1.40;;;;;;;;;;11093174;26;20448;-62
2024/04/22 05:57:24;;;;;;;2.42;1.17;;;;;;;;;;11096854;26;19996;-62
2024/04/22 06:02:26;;;;;;;4.32;1.35;;;;;;;;;;11111667;26;20004;-62
2024/04/22 06:07:27;;;;;;;4.10;1.17;;;;;;;;;;11117502;26;20031;-62
2024/04/22 06:12:28;;;;;;;2.65;1.10;;;;;;;;;;11111431;26;20072;-62
2024/04/22 06:17:29;;;;;;;1.38;1.20;;;;;;;;;;11116965;26;20475;-62
2024/04/22 06:22:34;;;;;;;2.75;1.20;;;;;;;;;;11120281;26;20280;-62
2024/04/22 06:27:35;;;;;;;3.58;1.42;;;;;;;;;;11112766;26;20087;-61
2024/04/22 06:32:36;;;;;;;3.97;1.42;;;;;;;;;;11119968;26;20036;-61
2024/04/22 06:37:37;;;;;;;7.68;1.27;;;;;;;;;;11120882;26;20011;-61
2024/04/22 06:42:39;;;;;;;2.60;1.20;;;;;;;;;;11088749;26;20028;-61
2024/04/22 06:47:40;;;;;;;1.90;1.38;;;;;;;;;;11121025;26;20012;-61
2024/04/22 06:52:41;;;;;;;13.85;1.63;;;;;;;;;;11089215;26;20013;-61
2024/04/22 06:57:42;;;;;;;4.18;1.38;;;;;;;;;;11088548;26;20012;-61
2024/04/22 07:02:45;;;;;;;3.70;1.50;;;;;;;;;;11112551;26;20465;-61
2024/04/22 07:07:46;;;;;;;2.38;1.30;;;;;;;;;;11122654;26;20079;-61
2024/04/22 07:12:47;;;;;;;2.90;1.35;;;;;;;;;;11119479;26;20001;-61
2024/04/22 07:17:48;;;;;;;4.28;1.45;;;;;;;;;;11117783;26;20036;-61
2024/04/22 07:22:49;;;;;;;3.42;1.40;;;;;;;;;;11115882;26;20062;-61
2024/04/22 07:27:51;;;;;;;2.45;1.30;;;;;;;;;;11116348;26;20048;-61
2024/04/22 07:32:53;;;;;;;6.43;1.20;;;;;;;;;;11119443;26;20005;-61
2024/04/22 07:37:59;;;;;;;3.72;1.30;;;;;;;;;;11121271;26;20111;-61
2024/04/22 07:43:00;;;;;;;1.60;1.35;;;;;;;;;;11126298;26;20004;-61
2024/04/22 07:48:01;;;;;;;1.15;1.10;;;;;;;;;;11117695;26;20028;-61
2024/04/22 07:53:02;;;;;;;5.40;1.40;;;;;;;;;;11127921;26;20078;-61
2024/04/22 07:58:04;;;;;;;3.20;1.23;;;;;;;;;;11124141;26;20040;-61
2024/04/22 08:03:05;;;;;;;5.65;1.10;;;;;;;;;;11123299;26;20000;-61
2024/04/22 08:08:09;;;;;;;1.20;1.10;;;;;;;;;;11124443;26;20032;-61
2024/04/22 08:13:10;;;;;;;2.40;1.33;;;;;;;;;;11124467;26;20045;-61
2024/04/22 08:18:14;;;;;;;1.48;1.23;;;;;;;;;;11125164;26;20091;-61
2024/04/22 08:23:15;;;;;;;2.15;1.30;;;;;;;;;;11111874;26;20008;-61
2024/04/22 08:28:16;;;;;;;2.28;1.40;;;;;;;;;;11124385;26;20036;-61
2024/04/22 08:33:18;;;;;;;2.28;1.33;;;;;;;;;;11125723;26;20721;-61
2024/04/22 08:38:20;;;;;;;7.20;1.38;;;;;;;;;;11124457;26;20015;-61
2024/04/22 08:43:23;;;;;;;4.22;1.45;;;;;;;;;;11121573;26;20109;-61
2024/04/22 08:48:24;;;;;;;1.98;1.30;;;;;;;;;;11066869;26;20015;-61
2024/04/22 08:53:25;;;;;;;3.38;1.42;;;;;;;;;;11092302;26;20090;-61
2024/04/22 08:58:27;;;;;;;2.08;1.52;;;;;;;;;;11118583;26;20475;-61
2024/04/22 09:03:28;;;;;;;3.28;1.70;;;;;;;;;;11124685;26;20383;-61
2024/04/22 09:08:29;;;;;;;3.20;1.42;;;;;;;;;;11117944;26;20032;-61
2024/04/22 09:13:31;;;;;;;1.75;1.27;;;;;;;;;;11122465;26;20012;-61
2024/04/22 09:18:36;;;;;;;1.60;1.50;;;;;;;;;;11093665;26;20015;-61
2024/04/22 09:23:37;;;;;;;1.88;1.50;;;;;;;;;;11094749;26;20095;-60
2024/04/22 09:28:38;;;;;;;8.00;1.65;;;;;;;;;;11111024;26;19996;-60
2024/04/22 09:33:41;;;;;;;2.47;1.60;;;;;;;;;;11122794;26;20235;-60
2024/04/22 09:38:45;;;;;;;3.00;1.33;;;;;;;;;;11115675;26;20491;-61
2024/04/22 09:43:52;;;;;;;3.03;1.40;;;;;;;;;;11098073;26;20012;-62
2024/04/22 09:48:55;;;;;;;1.40;1.30;;;;;;;;;;11079382;26;20154;-61
2024/04/22 09:53:58;;;;;;;2.78;1.52;;;;;;;;;;11087789;26;20423;-61
2024/04/22 09:59:03;;;;;;;2.28;1.80;;;;;;;;;;11064814;26;20016;-61
2024/04/22 10:04:04;;;;;;;1.27;1.17;;;;;;;;;;11079938;26;20000;-61
2024/04/22 10:09:06;;;;;;;2.45;1.40;;;;;;;;;;11086724;26;20012;-61
2024/04/22 10:14:16;;;;;;;1.20;1.15;;;;;;;;;;11115179;26;20021;-62
2024/04/22 10:19:17;;;;;;;1.58;1.48;;;;;;;;;;11116817;26;20012;-61
2024/04/22 10:24:38;;;;;;;1.40;1.27;;;;;;;;;;11108626;26;20047;-61
2024/04/22 10:29:42;;;;;;;2.53;1.40;;;;;;;;;;11118149;26;20004;-61
2024/04/22 10:34:44;;;;;;;2.97;1.40;;;;;;;;;;11117481;26;20447;-61
2024/04/22 10:39:48;;;;;;;3.38;1.42;;;;;;;;;;11110950;26;20011;-61
2024/04/22 10:44:49;;;;;;;3.47;1.58;;;;;;;;;;11110444;26;20245;-61
2024/04/22 10:49:50;;;;;;;1.10;1.10;;;;;;;;;;11111903;26;20455;-61
2024/04/22 10:54:52;;;;;;;1.48;1.27;;;;;;;;;;11113720;26;20012;-61
2024/04/22 10:59:55;;;;;;;2.15;1.48;;;;;;;;;;11100114;26;20004;-61
2024/04/22 11:04:57;;;;;;;1.17;1.13;;;;;;;;;;11119430;26;20016;-61
2024/04/22 11:09:59;;;;;;;1.83;1.40;;;;;;;;;;11087851;26;20102;-61
2024/04/22 11:15:00;;;;;;;5.40;1.33;;;;;;;;;;11090417;26;20046;-61
2024/04/22 11:20:10;;;;;;;2.15;1.33;;;;;;;;;;11109560;26;20011;-61
2024/04/22 11:25:11;;;;;;;2.03;1.60;;;;;;;;;;11115538;26;20000;-61
2024/04/22 11:30:13;;;;;;;1.40;1.30;;;;;;;;;;11118523;26;20011;-61
2024/04/22 11:35:14;;;;;;;1.77;1.42;;;;;;;;;;11122689;26;20475;-61
2024/04/22 11:40:15;;;;;;;1.85;1.23;;;;;;;;;;11112817;26;20051;-61
2024/04/22 11:45:17;;;;;;;1.60;1.30;;;;;;;;;;11111137;26;20004;-61
2024/04/22 11:50:18;;;;;;;2.10;1.60;;;;;;;;;;11113663;26;20644;-61
2024/04/22 11:55:19;;;;;;;1.70;1.50;;;;;;;;;;11121168;26;20048;-61
2024/04/22 12:00:20;;;;;;;1.40;1.30;;;;;;;;;;11121553;26;20032;-61
2024/04/22 12:05:21;;;;;;;3.90;1.42;;;;;;;;;;11104529;26;20015;-61
2024/04/22 12:10:22;;;;;;;1.52;1.40;;;;;;;;;;11106464;26;20044;-61
2024/04/22 12:15:23;;;;;;;1.85;1.65;;;;;;;;;;11122585;26;20000;-61
2024/04/22 12:20:25;;;;;;;2.08;1.23;;;;;;;;;;11101075;26;20029;-61
2024/04/22 12:25:26;;;;;;;1.67;1.52;;;;;;;;;;11069977;26;20000;-61
2024/04/22 12:30:27;;;;;;;3.25;1.42;;;;;;;;;;11071856;26;20751;-61
2024/04/22 12:35:28;;;;;;;7.03;1.42;;;;;;;;;;11121488;26;20038;-61
2024/04/22 12:40:29;;;;;;;1.42;1.20;;;;;;;;;;11115126;26;20001;-63
2024/04/22 12:45:30;;;;;;;1.25;1.17;;;;;;;;;;11119007;26;20600;-63
2024/04/22 12:50:48;;;;;;;4.47;1.23;;;;;;;;;;11119155;26;20314;-63
2024/04/22 12:55:49;;;;;;;3.20;1.50;;;;;;;;;;11114455;26;20004;-62
2024/04/22 13:00:50;;;;;;;1.67;1.17;;;;;;;;;;11113945;26;20418;-62
2024/04/22 13:05:51;;;;;;;1.20;1.10;;;;;;;;;;11112193;26;20015;-62
2024/04/22 13:10:52;;;;;;;1.70;1.00;;;;;;;;;;11119945;26;20493;-63
2024/04/22 13:15:53;;;;;;;2.88;1.50;;;;;;;;;;11118405;26;20031;-62
2024/04/22 13:20:55;;;;;;;1.45;1.30;;;;;;;;;;11113107;26;20099;-63
2024/04/22 13:25:56;;;;;;;1.67;1.27;;;;;;;;;;11140351;21;20072;-60
2024/04/22 13:30:57;;;;;;;1.50;1.40;;;;;;;;;;11149376;26;20000;-63
2024/04/22 13:35:59;;;;;;;2.22;1.30;;;;;;;;;;11095533;26;20329;-62
2024/04/22 13:41:00;;;;;;;1.83;1.30;;;;;;;;;;11072912;26;20001;-62
2024/04/22 13:46:02;;;;;;;1.40;1.27;;;;;;;;;;11055503;26;20855;-62
2024/04/22 13:51:03;;;;;;;1.60;1.27;;;;;;;;;;11050821;26;20015;-61
2024/04/22 13:56:05;;;;;;;5.57;1.35;;;;;;;;;;11055291;26;20032;-62
2024/04/22 14:01:07;;;;;;;1.70;1.20;;;;;;;;;;11092020;26;19997;-62
2024/04/22 14:06:08;;;;;;;1.40;1.30;;;;;;;;;;11077537;26;20102;-61
2024/04/22 14:11:10;;;;;;;2.17;1.10;;;;;;;;;;11052566;26;20011;-60
2024/04/22 14:16:11;;;;;;;2.13;1.35;;;;;;;;;;11056722;26;19997;-63
2024/04/22 14:21:12;;;;;;;1.67;1.33;;;;;;;;;;11050302;26;20073;-63
2024/04/22 14:26:18;;;;;;;1.30;1.20;;;;;;;;;;11014792;26;20468;-61
2024/04/22 14:31:19;;;;;;;1.60;1.20;;;;;;;;;;11064854;26;20012;-62
2024/04/22 14:36:20;;;;;;;1.30;1.10;;;;;;;;;;11061799;26;20005;-62
2024/04/22 14:41:22;;;;;;;4.10;1.35;;;;;;;;;;11060167;26;20011;-62
2024/04/22 14:46:24;;;;;;;1.17;1.13;;;;;;;;;;11081648;26;20013;-63
2024/04/22 14:51:25;;;;;;;4.15;1.33;;;;;;;;;;11055809;26;20001;-58
2024/04/22 14:56:26;;;;;;;1.30;1.20;;;;;;;;;;11055006;26;20103;-56
2024/04/22 15:01:27;;;;;;;2.55;1.58;;;;;;;;;;11057620;26;20033;-61
2024/04/22 15:06:28;;;;;;;1.40;1.30;;;;;;;;;;11085453;26;20500;-61
2024/04/22 15:11:30;;;;;;;2.53;1.30;;;;;;;;;;11066911;26;20071;-62
2024/04/22 15:16:31;;;;;;;1.30;1.20;;;;;;;;;;11054011;26;20074;-59
2024/04/22 15:21:33;;;;;;;1.13;1.00;;;;;;;;;;11063530;26;20005;-62
2024/04/22 15:26:34;;;;;;;1.23;1.10;;;;;;;;;;11095901;26;20092;-63
2024/04/22 15:31:35;;;;;;;1.63;1.52;;;;;;;;;;11061574;26;20026;-63
2024/04/22 15:36:36;;;;;;;1.23;1.20;;;;;;;;;;11067364;26;20068;-63
2024/04/22 15:41:37;;;;;;;1.40;1.30;;;;;;;;;;11059866;26;20328;-55
2024/04/22 15:46:38;;;;;;;1.17;1.08;;;;;;;;;;11066287;26;20037;-56
2024/04/22 15:51:39;;;;;;;1.02;1.02;;;;;;;;;;11062717;26;19997;-56
2024/04/22 15:56:40;;;;;;;1.23;1.13;;;;;;;;;;11068283;26;20100;-55
2024/04/22 16:01:41;;;;;;;1.50;1.20;;;;;;;;;;11098952;26;19996;-59
2024/04/22 16:06:43;;;;;;;1.20;1.10;;;;;;;;;;11059871;26;20408;-57
2024/04/22 16:11:44;;;;;;;3.05;1.27;;;;;;;;;;11040269;26;20320;-55
2024/04/22 16:16:45;;;;;;;1.35;1.20;;;;;;;;;;11053968;26;20013;-56
2024/04/22 16:21:46;;;;;;;1.10;1.10;;;;;;;;;;11052374;26;20351;-56
2024/04/22 16:26:48;;;;;;;1.30;1.15;;;;;;;;;;11080023;26;20012;-56
2024/04/22 16:31:49;;;;;;;1.30;1.20;;;;;;;;;;11064195;26;20016;-53
2024/04/22 16:36:50;;;;;;;1.50;1.10;;;;;;;;;;11077916;26;20130;-61
2024/04/22 16:41:51;;;;;;;1.55;1.38;;;;;;;;;;11088369;26;20000;-61
2024/04/22 16:46:52;;;;;;;2.72;1.63;;;;;;;;;;11077054;26;20012;-57
2024/04/22 16:51:53;;;;;;;2.63;1.30;;;;;;;;;;11068563;26;20004;-57
2024/04/22 16:56:55;;;;;;;1.45;1.35;;;;;;;;;;11054199;26;20057;-56
2024/04/22 17:01:56;;;;;;;1.35;1.25;;;;;;;;;;11066259;26;20005;-57
2024/04/22 17:06:57;;;;;;;1.75;1.20;;;;;;;;;;11080519;26;20015;-56
2024/04/22 17:11:59;;;;;;;3.40;1.20;;;;;;;;;;11066095;26;20000;-56
2024/04/22 17:17:00;;;;;;;2.03;1.50;;;;;;;;;;11065080;26;20032;-54
2024/04/22 17:22:01;;;;;;;1.17;1.17;;;;;;;;;;11085926;26;20001;-56
2024/04/22 17:27:03;;;;;;;1.27;1.17;;;;;;;;;;11066667;26;20701;-60
2024/04/22 17:32:04;;;;;;;1.38;1.27;;;;;;;;;;11058477;26;20000;-60
2024/04/22 17:37:05;;;;;;;2.53;1.23;;;;;;;;;;11071344;26;20037;-59
2024/04/22 17:42:06;;;;;;;9.93;2.38;;;;;;;;;;11059048;26;20317;-58
2024/04/22 17:47:07;;;;;;;5.78;1.42;;;;;;;;;;11050161;26;20030;-56
2024/04/22 17:52:09;;;;;;;2.95;1.30;;;;;;;;;;11051828;26;20084;-54
2024/04/22 17:57:10;;;;;;;1.48;1.23;;;;;;;;;;11038511;26;20000;-53
2024/04/22 18:02:11;;;;;;;2.53;1.50;;;;;;;;;;11048657;26;20078;-54
2024/04/22 18:07:12;;;;;;;4.70;1.40;;;;;;;;;;11050501;26;20020;-54
2024/04/22 18:12:13;;;;;;;2.17;1.45;;;;;;;;;;11063356;26;20012;-53
2024/04/22 18:17:14;;;;;;;4.30;1.60;;;;;;;;;;11066533;26;20108;-53
2024/04/22 18:22:15;;;;;;;1.70;1.27;;;;;;;;;;11056652;26;20004;-53
2024/04/22 18:27:16;;;;;;;2.38;1.55;;;;;;;;;;11039866;26;20043;-54
2024/04/22 18:32:17;;;;;;;3.38;1.30;;;;;;;;;;11049735;26;20316;-50
2024/04/22 18:37:19;;;;;;;1.40;1.30;;;;;;;;;;11053788;26;20071;-53
2024/04/22 18:42:20;;;;;;;2.70;1.52;;;;;;;;;;11046094;26;20007;-53
2024/04/22 18:47:21;;;;;;;2.28;1.88;;;;;;;;;;11049835;26;20074;-52
2024/04/22 18:52:22;;;;;;;1.77;1.50;;;;;;;;;;11060281;26;20005;-55
2024/04/22 18:57:23;;;;;;;3.22;2.05;;;;;;;;;;11049400;26;20710;-53
2024/04/22 19:02:24;;;;;;;3.58;1.95;;;;;;;;;;11059984;26;20000;-52
2024/04/22 19:07:25;;;;;;;5.25;2.35;;;;;;;;;;11063605;26;20413;-53
2024/04/22 19:12:27;;;;;;;3.38;1.85;;;;;;;;;;11039762;26;20423;-53
2024/04/22 19:17:28;;;;;;;8.23;1.70;;;;;;;;;;11047803;26;19996;-53
2024/04/22 19:22:30;;;;;;;3.92;1.95;;;;;;;;;;11050279;26;20005;-52
2024/04/22 19:27:31;;;;;;;2.53;1.75;;;;;;;;;;11051557;26;20048;-57
2024/04/22 19:32:32;;;;;;;2.13;1.75;;;;;;;;;;11053632;26;20015;-60
2024/04/22 19:37:34;;;;;;;4.20;1.90;;;;;;;;;;11024543;26;19997;-60
2024/04/22 19:42:35;;;;;;;4.22;2.22;;;;;;;;;;11048480;26;20384;-58
2024/04/22 19:47:36;;;;;;;9.10;2.28;;;;;;;;;;11067435;26;20407;-61
2024/04/22 19:52:39;;;;;;;26.85;2.63;;;;;;;;;;11027907;26;20512;-58
2024/04/22 19:57:40;;;;;;;13.52;3.15;;;;;;;;;;11064338;26;20017;-58
2024/04/22 20:02:41;;;;;;;16.60;3.40;;;;;;;;;;11066561;26;20072;-59
2024/04/22 20:07:42;;;;;;;8.23;2.42;;;;;;;;;;11054160;26;20001;-59
2024/04/22 20:12:44;;;;;;;15.55;3.42;;;;;;;;;;11051957;26;20002;-59
2024/04/22 20:18:04;;;;;;;5.75;2.47;;;;;;;;;;11062841;26;20565;-57
2024/04/22 20:23:05;;;;;;;10.55;3.28;;;;;;;;;;11063404;26;20000;-58
2024/04/22 20:28:07;;;;;;;6.95;3.13;;;;;;;;;;11039185;26;20048;-57
2024/04/22 20:33:08;;;;;;;13.75;2.78;;;;;;;;;;11040488;26;20009;-57
2024/04/22 20:38:09;;;;;;;14.52;2.78;;;;;;;;;;11082559;26;20655;-58
2024/04/22 20:43:35;;;;;;;8.35;2.63;;;;;;;;;;11059654;26;20020;-57
2024/04/22 20:48:39;;;;;;;4.10;1.95;;;;;;;;;;11039089;26;20016;-57
2024/04/22 20:53:40;;;;;;;5.28;2.05;;;;;;;;;;11038385;26;20778;-58
2024/04/22 20:58:41;;;;;;;7.00;2.00;;;;;;;;;;11043028;26;20082;-57
2024/04/22 21:03:42;;;;;;;7.10;2.03;;;;;;;;;;11015376;26;20005;-57
2024/04/22 21:08:43;;;;;;;3.03;1.65;;;;;;;;;;11038241;26;20083;-57
2024/04/22 21:14:00;;;;;;;4.03;1.50;;;;;;;;;;11060560;26;20041;-58
2024/04/22 21:19:01;;;;;;;5.50;1.98;;;;;;;;;;11060242;26;20099;-58
2024/04/22 21:24:02;;;;;;;3.10;1.50;;;;;;;;;;11068675;26;20001;-58
2024/04/22 21:29:03;;;;;;;5.80;2.00;;;;;;;;;;11044950;26;20457;-58
2024/04/22 21:34:05;;;;;;;8.32;1.73;;;;;;;;;;11043986;26;20029;-58
2024/04/22 21:39:06;;;;;;;3.33;1.30;;;;;;;;;;11044804;26;20036;-58
2024/04/22 21:44:07;;;;;;;2.13;1.60;;;;;;;;;;11050977;26;20016;-60
2024/04/22 21:49:09;;;;;;;2.15;1.80;;;;;;;;;;11044452;26;20020;-57
2024/04/22 21:54:12;;;;;;;3.58;1.63;;;;;;;;;;11056696;26;20340;-58
2024/04/22 22:00:11;;;;;;;2.45;1.30;;;;;;;;;;11071799;26;20001;-58
2024/04/22 22:06:09;;;;;;;3.55;1.77;;;;;;;;;;11057027;26;20417;-59
2024/04/22 22:11:10;;;;;;;4.50;1.97;;;;;;;;;;11048054;26;20463;-58
2024/04/22 22:16:11;;;;;;;1.40;1.30;;;;;;;;;;11040730;26;20005;-56
2024/04/22 22:21:13;;;;;;;3.78;1.50;;;;;;;;;;11014369;26;20021;-58
2024/04/22 22:26:14;;;;;;;1.30;1.15;;;;;;;;;;11074850;26;20001;-58
2024/04/22 22:31:15;;;;;;;5.57;1.48;;;;;;;;;;11053377;26;20025;-58
2024/04/22 22:36:16;;;;;;;2.30;1.40;;;;;;;;;;11069535;26;20001;-58
2024/04/22 22:41:18;;;;;;;2.10;1.25;;;;;;;;;;11049988;26;20488;-59
2024/04/22 22:46:20;;;;;;;3.53;1.35;;;;;;;;;;11040997;26;20000;-59
2024/04/22 22:51:21;;;;;;;12.10;1.40;;;;;;;;;;11072323;26;20083;-59
2024/04/22 22:56:22;;;;;;;2.08;1.30;;;;;;;;;;11046209;26;20354;-60
2024/04/22 23:01:23;;;;;;;3.60;1.52;;;;;;;;;;11047748;26;20096;-59
2024/04/22 23:06:24;;;;;;;4.18;1.30;;;;;;;;;;11083909;26;20028;-59
2024/04/22 23:11:25;;;;;;;3.10;1.50;;;;;;;;;;11056325;26;19997;-59
2024/04/22 23:16:27;;;;;;;1.13;1.02;;;;;;;;;;11041957;26;20005;-59
2024/04/22 23:21:28;;;;;;;3.67;1.27;;;;;;;;;;11052635;26;20016;-60
2024/04/22 23:26:29;;;;;;;3.20;1.30;;;;;;;;;;11056872;26;20001;-59
2024/04/22 23:31:30;;;;;;;1.23;1.15;;;;;;;;;;11068487;26;20122;-59
2024/04/22 23:36:31;;;;;;;2.58;1.10;;;;;;;;;;11059540;26;20001;-59
2024/04/22 23:41:32;;;;;;;1.35;1.15;;;;;;;;;;11043182;26;20456;-59
2024/04/22 23:46:33;;;;;;;4.35;1.25;;;;;;;;;;11054781;26;20001;-58
2024/04/22 23:51:34;;;;;;;6.10;1.67;;;;;;;;;;11059481;26;20079;-58
2024/04/22 23:56:36;;;;;;;1.73;1.08;;;;;;;;;;11053053;26;20033;-58
